Campbell Hill, Illinois
Current Conditions -  °F | °C
As of 8:15 AM on Monday 20 Oct 2014 (Local Time) from KSAR Reporting Station
Overcast Overcast  
Wind Chill: 54°   Ceiling: 10000
Heat Index: 54°   Visibility: 10mi
Dew Point: 48°   Wind: 5mph
Humidity: 80%   Direction: 230°SW
Pressure: 30.01"   Gusts: NA
Location:  37.93°N, 89.55°W
Report Text: KSAR 201315Z AUTO 23004KT 10SM OVC100 12/09 A3001 RMK AO2 T01240090
Loading
Personal Weather Stations






























Interactive Weather Map
Tropical Storm Tracking
New forecast layout! Learn more

10-Day Weather Forecast

Advertisements
Track Severe Weather on mobile